Time;durP1;ratioP1;P1;durP2;ratioP2;P2;SDS_P1;SDS_P2;PMS_P1;PMS_P2;Temp;Humidity;BMP_temperature;BMP_pressure;BME280_temperature;BME280_humidity;BME280_pressure;Samples;Min_cycle;Max_cycle;Signal;HPM_P1;HPM_P2
2022/10/06 00:02:27;;;;;;;;;;;;;;;13.16;87.04;101233.53;4937854;29;19936;-73
2022/10/06 00:05:30;;;;;;;;;;;;;;;13.26;86.86;101242.66;4937492;29;19973;-73
2022/10/06 00:08:35;;;;;;;;;;;;;;;13.17;87.71;101248.38;4937369;29;19925;-73
2022/10/06 00:11:38;;;;;;;;;;;;;;;13.16;87.83;101257.19;4937295;29;20014;-73
2022/10/06 00:14:41;;;;;;;;;;;;;;;13.30;88.54;101260.91;4937317;29;19970;-73
2022/10/06 00:17:45;;;;;;;;;;;;;;;13.30;89.81;101261.75;4937554;29;20286;-73
2022/10/06 00:20:53;;;;;;;;;;;;;;;13.32;89.29;101278.28;4937233;29;20294;-73
2022/10/06 00:23:56;;;;;;;;;;;;;;;13.42;88.95;101271.63;4936392;29;19982;-73
2022/10/06 00:27:00;;;;;;;;;;;;;;;13.50;88.45;101279.13;4936856;29;19922;-73
2022/10/06 00:30:04;;;;;;;;;;;;;;;13.51;89.19;101296.56;4936977;29;19946;-73
2022/10/06 00:33:10;;;;;;;;;;;;;;;13.75;90.73;101288.31;4937033;29;19929;-73
2022/10/06 00:36:13;;;;;;;;;;;;;;;13.95;89.34;101302.09;4936915;29;19921;-73
2022/10/06 00:39:18;;;;;;;;;;;;;;;14.01;90.10;101300.91;4936891;29;19922;-73
2022/10/06 00:42:23;;;;;;;;;;;;;;;14.21;89.58;101326.13;4936000;29;19921;-73
2022/10/06 00:45:27;;;;;;;;;;;;;;;14.64;87.81;101327.25;4925314;29;19961;-73
2022/10/06 00:48:30;;;;;;;;;;;;;;;14.76;87.08;101352.03;4936820;29;20017;-73
2022/10/06 00:51:35;;;;;;;;;;;;;;;14.83;86.37;101366.53;4936802;29;20073;-73
2022/10/06 00:54:38;;;;;;;;;;;;;;;14.97;84.43;101371.03;4936839;29;19937;-73
2022/10/06 00:57:42;;;;;;;;;;;;;;;14.99;83.87;101373.56;4936431;29;20473;-73
2022/10/06 01:00:47;;;;;;;;;;;;;;;14.98;83.84;101387.69;4934314;29;19921;-73
2022/10/06 01:03:59;;;;;;;;;;;;;;;14.98;82.54;101392.94;4923130;29;19970;-73
2022/10/06 01:07:03;;;;;;;;;;;;;;;15.01;82.23;101390.97;4923584;29;20282;-73
2022/10/06 01:10:06;;;;;;;;;;;;;;;15.01;81.83;101404.16;4935312;29;19926;-73
2022/10/06 01:13:10;;;;;;;;;;;;;;;14.94;82.80;101408.06;4935396;29;19973;-73
2022/10/06 01:16:17;;;;;;;;;;;;;;;14.84;83.43;101418.28;4924030;29;19921;-73
2022/10/06 01:19:31;;;;;;;;;;;;;;;14.82;83.23;101414.03;4935676;29;19922;-73
2022/10/06 01:22:36;;;;;;;;;;;;;;;14.79;83.02;101430.84;4886739;29;19926;-73
2022/10/06 01:25:39;;;;;;;;;;;;;;;14.78;81.12;101439.69;4897069;29;19923;-73
2022/10/06 01:28:42;;;;;;;;;;;;;;;14.61;80.78;101447.63;4898005;29;19937;-73
2022/10/06 01:31:46;;;;;;;;;;;;;;;14.51;81.92;101443.81;4898100;29;19926;-73
2022/10/06 01:34:49;;;;;;;;;;;;;;;14.41;83.09;101446.91;4886633;29;20379;-73
2022/10/06 01:37:53;;;;;;;;;;;;;;;14.32;83.05;101451.81;4897636;29;19971;-73
2022/10/06 01:40:56;;;;;;;;;;;;;;;14.34;83.15;101463.94;4886288;29;19938;-73
2022/10/06 01:44:00;;;;;;;;;;;;;;;14.25;84.98;101467.06;4897376;29;20006;-73
2022/10/06 01:47:05;;;;;;;;;;;;;;;14.22;85.73;101471.63;4886607;29;19943;-73
2022/10/06 01:50:09;;;;;;;;;;;;;;;14.22;86.20;101476.91;4886088;29;19922;-73
2022/10/06 01:53:12;;;;;;;;;;;;;;;14.11;86.79;101488.84;4886188;29;19926;-73
2022/10/06 01:56:16;;;;;;;;;;;;;;;14.06;86.75;101488.22;4886274;29;19970;-73
2022/10/06 01:59:20;;;;;;;;;;;;;;;14.01;85.04;101484.97;4897176;29;19982;-73
2022/10/06 02:02:23;;;;;;;;;;;;;;;14.05;85.07;101497.03;4897976;29;20042;-73
2022/10/06 02:05:26;;;;;;;;;;;;;;;14.01;85.65;101490.25;4885927;29;20410;-73
2022/10/06 02:08:31;;;;;;;;;;;;;;;14.03;86.27;101488.38;4886219;29;19926;-73
2022/10/06 02:11:36;;;;;;;;;;;;;;;14.10;86.60;101489.78;4885881;29;19926;-73
2022/10/06 02:14:41;;;;;;;;;;;;;;;14.12;86.82;101500.19;4897543;29;19971;-73
2022/10/06 02:17:46;;;;;;;;;;;;;;;14.03;86.90;101498.88;4895584;29;19921;-73
2022/10/06 02:20:49;;;;;;;;;;;;;;;14.07;87.09;101503.09;4894913;29;19927;-73
2022/10/06 02:23:52;;;;;;;;;;;;;;;14.01;87.27;101506.03;4896556;29;19985;-73
2022/10/06 02:26:56;;;;;;;;;;;;;;;13.99;86.99;101502.59;4884545;29;20335;-73
2022/10/06 02:30:00;;;;;;;;;;;;;;;13.96;87.74;101502.75;4885068;29;20019;-73
2022/10/06 02:33:04;;;;;;;;;;;;;;;14.07;87.57;101510.97;4885010;29;20417;-73
2022/10/06 02:36:09;;;;;;;;;;;;;;;14.16;86.74;101504.38;4896906;29;20014;-73
2022/10/06 02:39:12;;;;;;;;;;;;;;;14.26;87.16;101508.22;4886021;29;19923;-72
2022/10/06 02:42:16;;;;;;;;;;;;;;;14.26;86.74;101515.25;4885683;29;20347;-72
2022/10/06 02:45:20;;;;;;;;;;;;;;;14.13;87.12;101520.31;4885924;29;19922;-73
2022/10/06 02:48:24;;;;;;;;;;;;;;;14.08;87.39;101517.06;4886601;29;19922;-73
2022/10/06 02:51:27;;;;;;;;;;;;;;;14.12;87.70;101529.97;4889002;29;20451;-73
2022/10/06 02:54:34;;;;;;;;;;;;;;;14.12;88.17;101534.38;4888746;29;19971;-73
2022/10/06 02:57:37;;;;;;;;;;;;;;;14.15;88.09;101550.00;4900902;29;19926;-73
2022/10/06 03:00:41;;;;;;;;;;;;;;;14.06;87.85;101547.84;4899197;29;19921;-73
2022/10/06 03:03:45;;;;;;;;;;;;;;;13.94;88.84;101563.34;4900540;29;19926;-73
2022/10/06 03:06:48;;;;;;;;;;;;;;;13.98;87.81;101564.03;4889178;29;19922;-73
2022/10/06 03:09:54;;;;;;;;;;;;;;;13.90;86.78;101560.91;4888976;29;19977;-73
2022/10/06 03:13:00;;;;;;;;;;;;;;;13.93;86.27;101563.38;4888928;29;19974;-73
2022/10/06 03:16:11;;;;;;;;;;;;;;;14.05;85.95;101564.56;4888855;29;19948;-73
2022/10/06 03:19:15;;;;;;;;;;;;;;;13.84;85.42;101555.97;4900192;29;19963;-73
2022/10/06 03:22:21;;;;;;;;;;;;;;;13.95;85.13;101574.69;4888212;29;19927;-73
2022/10/06 03:25:30;;;;;;;;;;;;;;;13.92;84.73;101588.00;4888405;29;20073;-73
2022/10/06 03:28:33;;;;;;;;;;;;;;;14.00;85.00;101590.22;4900159;29;19963;-73
2022/10/06 03:31:37;;;;;;;;;;;;;;;14.03;84.99;101585.66;4888324;29;19927;-73
2022/10/06 03:34:40;;;;;;;;;;;;;;;13.95;85.83;101595.72;4888585;29;19971;-73
2022/10/06 03:37:47;;;;;;;;;;;;;;;13.84;86.91;101604.13;4888644;29;19926;-73
2022/10/06 03:40:50;;;;;;;;;;;;;;;13.70;87.47;101601.31;4888450;29;19963;-73
2022/10/06 03:43:54;;;;;;;;;;;;;;;13.67;88.09;101604.94;4907274;29;19962;-73
2022/10/06 03:46:58;;;;;;;;;;;;;;;13.45;89.05;101617.41;4907034;29;19938;-73
2022/10/06 03:50:02;;;;;;;;;;;;;;;13.36;89.12;101623.09;4907089;29;19973;-73
2022/10/06 03:53:06;;;;;;;;;;;;;;;13.39;88.55;101630.81;4905319;29;19926;-73
2022/10/06 03:56:11;;;;;;;;;;;;;;;13.28;88.84;101636.59;4918283;29;19930;-73
2022/10/06 03:59:16;;;;;;;;;;;;;;;13.21;88.20;101651.72;4905723;29;19926;-73
2022/10/06 04:02:22;;;;;;;;;;;;;;;12.94;88.78;101658.22;4917258;29;19922;-73
2022/10/06 04:05:29;;;;;;;;;;;;;;;12.93;88.87;101662.63;4917324;29;19926;-72
2022/10/06 04:08:34;;;;;;;;;;;;;;;12.90;88.96;101672.41;4918910;29;19944;-73
2022/10/06 04:11:40;;;;;;;;;;;;;;;12.80;88.12;101675.41;4906638;29;20022;-73
2022/10/06 04:14:45;;;;;;;;;;;;;;;12.88;87.74;101689.97;4918450;29;19962;-73
2022/10/06 04:17:48;;;;;;;;;;;;;;;12.91;87.27;101695.09;4917853;29;19922;-73
2022/10/06 04:21:05;;;;;;;;;;;;;;;12.72;86.84;101702.91;4905067;29;19922;-73
2022/10/06 04:24:18;;;;;;;;;;;;;;;12.54;87.25;101705.41;4895641;29;19922;-73
2022/10/06 04:27:27;;;;;;;;;;;;;;;12.63;86.86;101713.78;4895708;29;19982;-73
2022/10/06 04:30:40;;;;;;;;;;;;;;;12.43;86.89;101715.47;4914250;29;19986;-73
2022/10/06 04:33:45;;;;;;;;;;;;;;;12.31;86.73;101737.78;4913497;29;19930;-73
2022/10/06 04:36:52;;;;;;;;;;;;;;;12.38;86.70;101740.16;4913097;29;20431;-73
2022/10/06 04:40:00;;;;;;;;;;;;;;;12.25;86.45;101742.44;4914040;29;19922;-73
2022/10/06 04:43:08;;;;;;;;;;;;;;;12.27;85.80;101744.09;4914094;29;19925;-73
2022/10/06 04:46:13;;;;;;;;;;;;;;;12.14;86.16;101755.97;4914021;29;19974;-73
2022/10/06 04:49:17;;;;;;;;;;;;;;;12.08;86.13;101753.59;4882855;29;19986;-73
2022/10/06 04:52:21;;;;;;;;;;;;;;;12.02;86.21;101767.78;4893643;29;19929;-73
2022/10/06 04:55:25;;;;;;;;;;;;;;;12.06;86.01;101771.13;4901958;29;19922;-73
2022/10/06 04:58:34;;;;;;;;;;;;;;;12.02;85.45;101769.56;4901577;29;19983;-73
2022/10/06 05:01:37;;;;;;;;;;;;;;;11.99;85.54;101772.28;4901076;29;19924;-73
2022/10/06 05:04:45;;;;;;;;;;;;;;;11.91;85.82;101788.31;4894460;29;19963;-73
2022/10/06 05:07:51;;;;;;;;;;;;;;;11.79;85.50;101786.97;4884163;29;19971;-73
2022/10/06 05:10:59;;;;;;;;;;;;;;;11.79;84.77;101801.84;4913330;29;19969;-73
2022/10/06 05:14:02;;;;;;;;;;;;;;;11.78;84.65;101795.75;4913607;29;19982;-73
2022/10/06 05:17:08;;;;;;;;;;;;;;;11.79;84.57;101800.06;4901041;29;20868;-73
2022/10/06 05:20:14;;;;;;;;;;;;;;;11.72;84.55;101811.69;4912459;29;20433;-73
2022/10/06 05:23:18;;;;;;;;;;;;;;;11.65;84.33;101815.47;4913063;29;19925;-73
2022/10/06 05:26:24;;;;;;;;;;;;;;;11.67;84.10;101812.78;4901012;29;19921;-73
2022/10/06 05:29:29;;;;;;;;;;;;;;;11.47;84.36;101827.44;4900668;29;20401;-73
2022/10/06 05:32:35;;;;;;;;;;;;;;;11.57;83.22;101814.88;4912102;29;19958;-73
2022/10/06 05:35:50;;;;;;;;;;;;;;;11.47;83.87;101818.72;4900876;29;19982;-73
2022/10/06 05:38:55;;;;;;;;;;;;;;;11.51;83.07;101828.19;4912457;29;19967;-73
2022/10/06 05:41:59;;;;;;;;;;;;;;;11.46;82.95;101840.59;4912358;29;19926;-73
2022/10/06 05:45:03;;;;;;;;;;;;;;;11.51;82.21;101829.03;4901030;29;20332;-73
2022/10/06 05:48:07;;;;;;;;;;;;;;;11.37;82.92;101837.38;4901323;29;19958;-73
2022/10/06 05:51:11;;;;;;;;;;;;;;;11.40;82.95;101847.75;4900799;29;20220;-73
2022/10/06 05:54:16;;;;;;;;;;;;;;;11.27;83.17;101867.41;4900854;29;19946;-73
2022/10/06 05:57:20;;;;;;;;;;;;;;;11.30;82.94;101876.94;4900117;29;20018;-73
2022/10/06 06:00:24;;;;;;;;;;;;;;;11.14;83.31;101876.59;4910826;29;19956;-73
2022/10/06 06:03:27;;;;;;;;;;;;;;;11.02;83.65;101888.31;4900741;29;20397;-73
2022/10/06 06:06:32;;;;;;;;;;;;;;;11.05;83.45;101892.59;4913107;29;19922;-74
2022/10/06 06:09:39;;;;;;;;;;;;;;;10.99;83.26;101900.63;4912182;29;20009;-74
2022/10/06 06:12:42;;;;;;;;;;;;;;;11.11;83.22;101902.88;4900126;29;19941;-73
2022/10/06 06:16:11;;;;;;;;;;;;;;;11.13;83.17;101901.88;4881718;29;20529;-73
2022/10/06 06:19:14;;;;;;;;;;;;;;;10.96;83.61;101919.06;4881859;29;19971;-73
2022/10/06 06:22:19;;;;;;;;;;;;;;;11.02;83.20;101922.34;4882163;29;19974;-73
2022/10/06 06:25:25;;;;;;;;;;;;;;;11.00;83.08;101931.13;4886243;29;19958;-73
2022/10/06 06:28:29;;;;;;;;;;;;;;;11.18;82.99;101935.78;4910442;29;20433;-73
2022/10/06 06:31:34;;;;;;;;;;;;;;;11.13;83.58;101942.91;4904303;29;19926;-73
2022/10/06 06:34:39;;;;;;;;;;;;;;;10.87;83.96;101949.81;4915847;29;19925;-73
2022/10/06 06:37:45;;;;;;;;;;;;;;;10.96;83.42;101948.69;4904321;29;20054;-73
2022/10/06 06:40:49;;;;;;;;;;;;;;;10.97;83.76;101962.63;4903697;29;20010;-74
2022/10/06 06:43:54;;;;;;;;;;;;;;;11.04;83.91;101961.53;4903439;29;20018;-73
2022/10/06 06:47:08;;;;;;;;;;;;;;;11.14;83.30;101970.81;4914643;29;20001;-74
2022/10/06 06:50:14;;;;;;;;;;;;;;;11.19;83.33;101968.91;4914667;29;19982;-74
2022/10/06 06:53:18;;;;;;;;;;;;;;;11.19;83.59;101982.00;4903750;29;20310;-73
2022/10/06 06:56:23;;;;;;;;;;;;;;;11.31;83.46;101979.00;4903321;29;19922;-73
2022/10/06 06:59:26;;;;;;;;;;;;;;;11.30;84.25;101987.75;4915608;29;20017;-73
2022/10/06 07:02:32;;;;;;;;;;;;;;;11.34;84.68;101983.28;4904191;29;19969;-73
2022/10/06 07:05:38;;;;;;;;;;;;;;;11.03;86.80;101992.09;4895652;29;20018;-74
2022/10/06 07:08:44;;;;;;;;;;;;;;;10.85;88.27;101985.66;4907960;29;19922;-74
2022/10/06 07:11:49;;;;;;;;;;;;;;;11.13;87.61;101995.28;4921597;29;19926;-77
2022/10/06 07:25:21;;;;;;;;;;;;;;;11.41;87.33;102011.81;4914301;29;19922;-74
2022/10/06 07:28:29;;;;;;;;;;;;;;;11.73;85.81;102009.06;4924925;29;19946;-74
2022/10/06 07:31:34;;;;;;;;;;;;;;;11.78;85.92;102015.88;4914080;29;19970;-74
2022/10/06 07:34:40;;;;;;;;;;;;;;;12.05;84.47;102023.72;4915255;29;20385;-74
2022/10/06 07:37:44;;;;;;;;;;;;;;;12.03;83.58;102025.56;4914266;29;19962;-74
2022/10/06 07:40:55;;;;;;;;;;;;;;;12.29;83.28;102027.28;4904847;29;19922;-74
2022/10/06 07:43:59;;;;;;;;;;;;;;;12.36;83.74;102033.16;4903432;29;19953;-74
2022/10/06 07:47:05;;;;;;;;;;;;;;;12.53;83.34;102033.41;4914023;29;20180;-74
2022/10/06 07:50:28;;;;;;;;;;;;;;;12.59;79.03;102030.56;4902512;29;19921;-74
2022/10/06 07:53:31;;;;;;;;;;;;;;;12.75;75.58;102043.97;4902399;29;19942;-74
2022/10/06 07:56:47;;;;;;;;;;;;;;;12.88;73.52;102045.22;4903282;29;19943;-74
2022/10/06 07:59:51;;;;;;;;;;;;;;;12.90;70.26;102045.16;4914949;29;19929;-74
2022/10/06 08:02:54;;;;;;;;;;;;;;;13.04;71.52;102042.84;4914027;29;19921;-74
2022/10/06 08:05:59;;;;;;;;;;;;;;;13.18;70.42;102050.22;4914486;29;19999;-74
2022/10/06 08:09:02;;;;;;;;;;;;;;;13.24;68.76;102053.50;4921193;29;19942;-75
2022/10/06 08:12:31;;;;;;;;;;;;;;;13.22;68.57;102052.66;4932865;29;19991;-74
2022/10/06 08:15:29;;;;;;;;;;;;;;;13.33;67.72;102059.28;4933471;29;19953;-74
2022/10/06 08:18:33;;;;;;;;;;;;;;;13.47;68.03;102057.84;4933384;29;20345;-74
2022/10/06 08:21:38;;;;;;;;;;;;;;;13.50;67.68;102056.88;4928563;29;19926;-74
2022/10/06 08:24:42;;;;;;;;;;;;;;;13.49;67.76;102063.03;4914211;29;19922;-74
2022/10/06 08:27:45;;;;;;;;;;;;;;;13.48;66.71;102077.09;4914115;29;19967;-74
2022/10/06 08:30:53;;;;;;;;;;;;;;;13.56;67.01;102082.91;4913783;29;19938;-74
2022/10/06 08:34:00;;;;;;;;;;;;;;;13.62;68.64;102084.41;4911574;29;19964;-74
2022/10/06 08:37:03;;;;;;;;;;;;;;;13.74;66.88;102091.81;4905702;29;19964;-74
2022/10/06 08:40:11;;;;;;;;;;;;;;;13.70;64.85;102093.72;4914394;29;19922;-74
2022/10/06 08:43:17;;;;;;;;;;;;;;;13.67;66.30;102096.47;4915761;29;19970;-74
2022/10/06 08:46:23;;;;;;;;;;;;;;;13.68;65.18;102103.41;4913809;29;20313;-74
2022/10/06 08:49:34;;;;;;;;;;;;;;;13.58;64.33;102099.44;4911916;29;20220;-74
2022/10/06 08:52:37;;;;;;;;;;;;;;;13.55;64.52;102104.81;4882511;29;19991;-74
2022/10/06 08:55:44;;;;;;;;;;;;;;;13.56;64.24;102109.19;4905879;29;19926;-74
2022/10/06 08:58:54;;;;;;;;;;;;;;;13.58;63.80;102115.22;4911667;29;19963;-73
2022/10/06 09:01:57;;;;;;;;;;;;;;;13.47;63.57;102113.03;4900626;29;19921;-73
2022/10/06 09:05:03;;;;;;;;;;;;;;;13.56;63.25;102124.06;4911612;29;20239;-74
2022/10/06 09:08:19;;;;;;;;;;;;;;;13.61;63.15;102117.72;4912326;29;19922;-74
2022/10/06 09:11:40;;;;;;;;;;;;;;;13.70;63.78;102124.41;4912535;29;19926;-74
2022/10/06 09:14:53;;;;;;;;;;;;;;;13.76;64.39;102133.81;4914689;29;20044;-74
2022/10/06 09:18:00;;;;;;;;;;;;;;;13.69;63.31;102136.69;4914831;29;19922;-74
2022/10/06 09:21:15;;;;;;;;;;;;;;;13.70;62.96;102138.41;4894140;29;20232;-74
2022/10/06 09:24:27;;;;;;;;;;;;;;;13.71;63.51;102137.47;4894111;29;20011;-74
2022/10/06 09:27:36;;;;;;;;;;;;;;;13.66;62.94;102147.31;4897533;29;19938;-74
2022/10/06 09:30:41;;;;;;;;;;;;;;;13.67;63.65;102143.78;4912606;29;19922;-74
2022/10/06 09:33:45;;;;;;;;;;;;;;;13.67;62.60;102143.78;4911911;29;20021;-74
2022/10/06 09:36:59;;;;;;;;;;;;;;;13.95;64.80;102155.81;4912879;29;20377;-74
2022/10/06 09:40:22;;;;;;;;;;;;;;;13.98;62.54;102147.81;4912711;29;19921;-75
2022/10/06 09:43:28;;;;;;;;;;;;;;;13.96;62.24;102144.38;4912081;29;20031;-74
2022/10/06 09:46:33;;;;;;;;;;;;;;;13.99;62.16;102143.41;4924773;29;19921;-74
2022/10/06 09:49:37;;;;;;;;;;;;;;;14.00;62.34;102153.84;4899480;29;20282;-74
2022/10/06 09:52:41;;;;;;;;;;;;;;;14.01;62.08;102152.94;4902561;29;20385;-74
2022/10/06 09:55:46;;;;;;;;;;;;;;;14.05;61.21;102144.00;4913068;29;19957;-74
2022/10/06 09:58:57;;;;;;;;;;;;;;;14.11;61.09;102143.75;4912806;29;19966;-74
2022/10/06 10:02:03;;;;;;;;;;;;;;;14.05;60.31;102154.53;4912039;29;20375;-74
2022/10/06 10:05:18;;;;;;;;;;;;;;;14.10;60.83;102147.31;4912819;29;19970;-74
2022/10/06 10:08:23;;;;;;;;;;;;;;;14.24;61.27;102153.78;4913047;29;19969;-74
2022/10/06 10:14:49;;;;;;;;;;;;;;;14.28;60.14;102152.72;4912552;29;20410;-74
2022/10/06 10:17:58;;;;;;;;;;;;;;;14.49;60.90;102159.72;4911331;29;19978;-74
2022/10/06 10:21:07;;;;;;;;;;;;;;;14.56;59.11;102158.56;4911710;29;20286;-74
2022/10/06 10:24:17;;;;;;;;;;;;;;;14.57;59.34;102151.50;4912172;29;19938;-75
2022/10/06 10:27:41;;;;;;;;;;;;;;;14.48;57.77;102144.81;4912136;29;19970;-75
2022/10/06 10:30:48;;;;;;;;;;;;;;;14.50;57.72;102156.16;4911342;29;20566;-75
2022/10/06 10:34:06;;;;;;;;;;;;;;;14.47;57.87;102155.44;4912545;29;20482;-75
2022/10/06 10:37:13;;;;;;;;;;;;;;;14.49;56.26;102149.19;4912563;29;19925;-75
2022/10/06 10:40:34;;;;;;;;;;;;;;;14.60;57.69;102152.22;4912845;29;20163;-75
2022/10/06 10:43:38;;;;;;;;;;;;;;;14.67;55.92;102142.28;4912073;29;19926;-75
2022/10/06 10:46:48;;;;;;;;;;;;;;;14.62;54.46;102139.03;4911065;29;19922;-75
2022/10/06 10:49:58;;;;;;;;;;;;;;;14.73;55.79;102130.63;4893166;29;20343;-75
2022/10/06 10:53:07;;;;;;;;;;;;;;;14.79;55.20;102130.38;4895750;29;19926;-75
2022/10/06 10:56:12;;;;;;;;;;;;;;;14.88;54.73;102125.53;4906752;29;20287;-75
2022/10/06 10:59:18;;;;;;;;;;;;;;;14.85;53.43;102122.19;4912010;29;19922;-74
2022/10/06 11:02:22;;;;;;;;;;;;;;;14.85;53.37;102125.69;4911900;29;19925;-74
2022/10/06 11:05:34;;;;;;;;;;;;;;;14.97;54.50;102129.56;4911531;29;19970;-74
2022/10/06 11:08:41;;;;;;;;;;;;;;;14.99;53.16;102124.19;4912464;29;19993;-74
2022/10/06 11:11:55;;;;;;;;;;;;;;;15.07;54.59;102124.72;4915905;29;19926;-75
2022/10/06 11:15:03;;;;;;;;;;;;;;;15.09;52.18;102121.09;4914534;29;19923;-75
2022/10/06 11:18:15;;;;;;;;;;;;;;;15.08;51.98;102114.09;4915481;29;19925;-75
2022/10/06 11:21:25;;;;;;;;;;;;;;;15.08;51.49;102121.16;4915126;29;20024;-75
2022/10/06 11:24:34;;;;;;;;;;;;;;;15.16;51.36;102118.19;4915186;29;19922;-75
2022/10/06 11:27:56;;;;;;;;;;;;;;;15.21;50.05;102124.94;4914478;29;19991;-75
2022/10/06 11:31:10;;;;;;;;;;;;;;;15.20;49.84;102128.50;4914958;29;19956;-75
2022/10/06 11:34:13;;;;;;;;;;;;;;;15.37;50.00;102126.84;4915503;29;19930;-75
2022/10/06 11:37:34;;;;;;;;;;;;;;;15.47;50.79;102122.84;4914803;29;20362;-75
2022/10/06 11:40:46;;;;;;;;;;;;;;;15.46;48.59;102105.34;4915790;29;20006;-75
2022/10/06 11:43:59;;;;;;;;;;;;;;;15.56;51.17;102110.09;4895927;29;20029;-75
2022/10/06 11:47:10;;;;;;;;;;;;;;;15.74;56.80;102102.25;4906599;29;19958;-75
2022/10/06 11:50:34;;;;;;;;;;;;;;;15.94;54.06;102107.41;4914458;29;19982;-74
2022/10/06 11:53:39;;;;;;;;;;;;;;;16.00;48.24;102101.81;4914343;29;19926;-74
2022/10/06 11:56:46;;;;;;;;;;;;;;;16.02;47.03;102097.34;4914362;29;20439;-74
2022/10/06 11:59:55;;;;;;;;;;;;;;;16.11;47.41;102097.78;4924617;29;19925;-74
2022/10/06 12:03:19;;;;;;;;;;;;;;;16.29;46.81;102096.84;4914110;29;20398;-74
2022/10/06 12:06:47;;;;;;;;;;;;;;;16.45;45.07;102092.50;4914600;29;19922;-74
2022/10/06 12:10:31;;;;;;;;;;;;;;;16.74;45.10;102087.47;4920095;29;19970;-74
2022/10/06 12:13:48;;;;;;;;;;;;;;;16.75;43.99;102083.91;4895074;29;19930;-74
2022/10/06 12:17:02;;;;;;;;;;;;;;;16.98;45.89;102071.28;4895637;29;20413;-74
2022/10/06 12:20:14;;;;;;;;;;;;;;;17.06;44.05;102080.47;4894822;29;20013;-74
2022/10/06 12:23:38;;;;;;;;;;;;;;;17.39;43.29;102075.13;4895180;29;19922;-74
2022/10/06 12:27:00;;;;;;;;;;;;;;;18.36;45.81;102072.13;4896425;29;20165;-74
2022/10/06 12:30:17;;;;;;;;;;;;;;;21.67;37.66;102067.63;4895166;29;19921;-74
2022/10/06 12:33:36;;;;;;;;;;;;;;;24.39;30.79;102052.78;4883055;29;20027;-74
2022/10/06 12:36:40;;;;;;;;;;;;;;;24.67;30.54;102050.41;4911533;29;20079;-75
2022/10/06 12:39:43;;;;;;;;;;;;;;;25.58;28.82;102052.00;4900557;29;20430;-75
2022/10/06 12:42:47;;;;;;;;;;;;;;;25.50;28.44;102052.72;4912727;29;20394;-75
2022/10/06 12:45:58;;;;;;;;;;;;;;;25.52;30.04;102044.53;4912547;29;19918;-74
2022/10/06 12:49:02;;;;;;;;;;;;;;;24.64;32.23;102051.53;4901443;29;19921;-74
2022/10/06 12:52:32;;;;;;;;;;;;;;;23.56;33.97;102053.63;4912983;29;20385;-74
2022/10/06 12:55:44;;;;;;;;;;;;;;;22.50;33.83;102044.34;4933726;29;19922;-74
2022/10/06 12:58:48;;;;;;;;;;;;;;;21.48;36.29;102054.81;4920378;29;19970;-74
2022/10/06 13:01:58;;;;;;;;;;;;;;;21.18;38.60;102049.91;4930680;29;20010;-74
2022/10/06 13:05:11;;;;;;;;;;;;;;;20.56;42.33;102051.63;4933338;29;19953;-74
2022/10/06 13:08:23;;;;;;;;;;;;;;;20.28;39.82;102043.88;4924155;29;19922;-74
2022/10/06 13:11:27;;;;;;;;;;;;;;;20.02;44.66;102051.81;4901629;29;19994;-74
2022/10/06 13:14:33;;;;;;;;;;;;;;;19.87;43.88;102047.53;4913175;29;19926;-74
2022/10/06 13:17:41;;;;;;;;;;;;;;;19.76;43.18;102047.41;4876260;29;20145;-74
2022/10/06 13:20:51;;;;;;;;;;;;;;;19.56;38.12;102044.25;4876247;29;20340;-74
2022/10/06 13:23:59;;;;;;;;;;;;;;;19.39;41.54;102039.19;4885311;29;20376;-74
2022/10/06 13:27:05;;;;;;;;;;;;;;;19.25;39.39;102046.25;4875859;29;19975;-74
2022/10/06 13:30:20;;;;;;;;;;;;;;;19.20;37.93;102037.72;4874510;29;20068;-74
2022/10/06 13:33:31;;;;;;;;;;;;;;;19.11;38.43;102038.31;4875165;29;19930;-74
2022/10/06 13:36:37;;;;;;;;;;;;;;;18.98;38.60;102029.44;4882244;29;19922;-74
2022/10/06 13:39:42;;;;;;;;;;;;;;;18.97;43.81;102035.72;4893929;29;19922;-74
2022/10/06 13:42:47;;;;;;;;;;;;;;;18.64;44.46;102034.22;4893377;29;20455;-74
2022/10/06 13:45:52;;;;;;;;;;;;;;;18.51;45.76;102036.78;4862658;29;19922;-74
2022/10/06 13:48:59;;;;;;;;;;;;;;;18.45;44.28;102038.97;4860807;29;19931;-74
2022/10/06 13:52:06;;;;;;;;;;;;;;;18.68;42.23;102027.78;4901403;29;19927;-74
2022/10/06 13:55:17;;;;;;;;;;;;;;;18.90;44.64;102026.47;4891907;29;20295;-74
2022/10/06 13:58:25;;;;;;;;;;;;;;;18.62;43.31;102029.97;4880938;29;20006;-74
2022/10/06 14:01:31;;;;;;;;;;;;;;;18.48;46.16;102029.03;4893461;29;20377;-74
2022/10/06 14:04:35;;;;;;;;;;;;;;;18.51;46.69;102028.00;4882328;29;20128;-74
2022/10/06 14:07:45;;;;;;;;;;;;;;;18.66;45.80;102021.72;4900527;29;19962;-74
2022/10/06 14:10:52;;;;;;;;;;;;;;;18.60;45.78;102022.09;4911114;29;19971;-74
2022/10/06 14:14:00;;;;;;;;;;;;;;;18.68;46.21;102025.13;4912073;29;19926;-74
2022/10/06 14:17:22;;;;;;;;;;;;;;;18.68;47.23;102024.28;4911937;29;20422;-74
2022/10/06 14:20:44;;;;;;;;;;;;;;;18.47;48.03;102019.34;4910635;29;19942;-74
2022/10/06 14:23:48;;;;;;;;;;;;;;;18.49;47.16;102017.47;4912821;29;19922;-74
2022/10/06 14:27:03;;;;;;;;;;;;;;;18.38;47.28;102019.94;4911838;29;19979;-74
2022/10/06 14:30:07;;;;;;;;;;;;;;;18.60;47.43;102016.78;4912429;29;19922;-74
2022/10/06 14:33:15;;;;;;;;;;;;;;;18.50;47.07;102015.66;4911971;29;20419;-74
2022/10/06 14:36:33;;;;;;;;;;;;;;;18.61;46.77;102013.22;4894081;29;20040;-74
2022/10/06 14:39:36;;;;;;;;;;;;;;;18.65;47.87;102006.78;4892991;29;19922;-74
2022/10/06 14:42:40;;;;;;;;;;;;;;;18.56;49.10;102012.63;4893856;29;19922;-73
2022/10/06 14:45:43;;;;;;;;;;;;;;;18.70;47.24;102012.66;4898156;29;20007;-73
2022/10/06 14:48:47;;;;;;;;;;;;;;;18.45;48.30;102013.31;4896595;29;19925;-73
2022/10/06 14:51:52;;;;;;;;;;;;;;;18.61;47.63;102001.78;4896377;29;19922;-74
2022/10/06 14:54:57;;;;;;;;;;;;;;;18.48;48.39;102006.97;4896199;29;19921;-74
2022/10/06 14:58:02;;;;;;;;;;;;;;;18.41;48.39;102000.34;4896550;29;19923;-74
2022/10/06 15:01:06;;;;;;;;;;;;;;;18.48;47.52;102006.97;4896540;29;19947;-74
2022/10/06 15:04:14;;;;;;;;;;;;;;;18.99;46.81;101996.72;4885201;29;19967;-74
2022/10/06 15:10:49;;;;;;;;;;;;;;;19.24;46.72;101996.81;4904716;29;19926;-74
2022/10/06 15:13:57;;;;;;;;;;;;;;;19.34;46.02;101996.22;4916829;29;19933;-74
2022/10/06 15:17:11;;;;;;;;;;;;;;;19.47;45.01;101997.09;4922590;29;19922;-74
2022/10/06 15:20:18;;;;;;;;;;;;;;;19.31;46.22;101991.13;4928319;29;20030;-74
2022/10/06 15:23:23;;;;;;;;;;;;;;;18.62;47.31;101988.41;4903222;29;20273;-74
2022/10/06 15:29:52;;;;;;;;;;;;;;;17.26;52.65;101997.44;4915660;29;19998;-74
2022/10/06 15:33:02;;;;;;;;;;;;;;;16.92;53.46;101996.69;4915380;29;19926;-74
2022/10/06 15:36:19;;;;;;;;;;;;;;;16.90;53.05;101997.69;4915671;29;19987;-74
2022/10/06 15:39:29;;;;;;;;;;;;;;;16.73;55.03;101993.31;4915101;29;19935;-74
2022/10/06 15:42:33;;;;;;;;;;;;;;;16.60;55.77;101989.66;4914008;29;19939;-74
2022/10/06 15:45:38;;;;;;;;;;;;;;;16.46;55.68;101988.59;4914463;29;19953;-74
2022/10/06 15:48:43;;;;;;;;;;;;;;;16.26;56.75;101987.00;4914530;29;19922;-74
2022/10/06 15:51:55;;;;;;;;;;;;;;;16.06;57.35;101989.00;4914317;29;20378;-74
2022/10/06 15:55:02;;;;;;;;;;;;;;;15.86;58.94;101995.28;4914911;29;19922;-74
2022/10/06 15:58:07;;;;;;;;;;;;;;;15.75;58.87;101990.56;4915095;29;19922;-74
2022/10/06 16:01:27;;;;;;;;;;;;;;;15.51;59.50;102000.53;4914076;29;20327;-74
2022/10/06 16:07:46;;;;;;;;;;;;;;;15.18;62.48;102000.38;4913037;29;20124;-74
2022/10/06 16:10:51;;;;;;;;;;;;;;;15.08;62.70;101997.34;4913811;29;19942;-74
2022/10/06 16:13:58;;;;;;;;;;;;;;;14.82;63.95;101995.94;4912727;29;20075;-74
2022/10/06 16:17:08;;;;;;;;;;;;;;;14.88;62.88;101990.38;4913599;29;19925;-74
2022/10/06 16:20:27;;;;;;;;;;;;;;;14.74;63.97;101998.06;4914551;29;20336;-74
2022/10/06 16:23:31;;;;;;;;;;;;;;;14.65;64.98;102002.84;4901320;29;19986;-74
2022/10/06 16:26:39;;;;;;;;;;;;;;;14.61;64.57;102000.41;4912013;29;20275;-74